In Rescue
 
Open Full Screen Window  High Contrast Mode
Wind Gusting 00 knots
06
November 29, 2022 8:46 AM EST
Weather Information
Wind Direction
  130 °
Wind Speed
  06 kt (7 mph)
Wind Gust
  00 kt (0 mph)
Altimeter
30.00 in
Visibility
10 SM
Temperature
05° C
41° F
Dewpoint
02° C
36° F
Humidity
81%
Sky Condition
Overcast @ 3,200 ft
VFR

METAR KRNP 291346Z AUTO 13006KT 10SM OVC032 05/02 A3000 RMK AO2 T00460016

FAA Disclaimer: The data displayed is for advisory purposes only and is not to be used for flight planning or operations.